This is the latest recevied weather packets stored in our database for station/object KB3KBR-WX. If no packets are shown the sender has not sent any weather packets the latest 10 day(s).
| Time | Temp. | Humidity | Pressure | Rain* | Wind** | Luminosity | Snow |
|---|---|---|---|---|---|---|---|
| 1787842858 | 22.22° C | 85% | 1012.6 hPa | 0 mm | - | - | - |
| 1787842229 | 22.22° C | 86% | 1012.6 hPa | 0 mm | - | - | - |
| 1787841929 | 22.22° C | 85% | 1012.6 hPa | 0 mm | - | - | - |
| 1787841730 | 16.67° C | 95% | 1011.3 hPa | 5.08 mm | - | - | - |
| 1787841688 | 15° C | 95% | 1011.6 hPa | 0 mm | - | - | - |
| 1787841682 | 15° C | 95% | 1011.4 hPa | 0 mm | - | - | - |
| 1787841680 | 15° C | 95% | 1011.5 hPa | 0 mm | - | - | - |
| 1787841676 | 15° C | 95% | 1011.5 hPa | 0 mm | - | - | - |
| 1787841659 | 15° C | 94% | 1011.8 hPa | 0 mm | - | - | - |
| 1787841652 | 15° C | 94% | 1011.8 hPa | 0 mm | - | - | - |
| 1787841648 | 15° C | 94% | 1012 hPa | 0 mm | - | - | - |
| 1787841646 | 15° C | 93% | 1012 hPa | 0 mm | - | - | - |
| 1787841628 | 21.67° C | 87% | 1012.5 hPa | 0 mm | - | - | - |
| 1787841626 | 15.56° C | 93% | 1012.1 hPa | 0 mm | - | - | - |
| 1787841328 | 21.67° C | 88% | 1012.5 hPa | 0 mm | - | - | - |
| 1787840998 | 21.11° C | 88% | 1012.4 hPa | 0 mm | - | - | - |
| 1787840699 | 21.11° C | 88% | 1012.4 hPa | 0 mm | - | - | - |
| 1787840399 | 21.11° C | 89% | 1012.3 hPa | 0 mm | - | - | - |
| 1787840069 | 20.56° C | 89% | 1012.2 hPa | 0 mm | - | - | - |
| 1787839768 | 20.56° C | 90% | 1012.1 hPa | 0 mm | - | - | - |
| 1787839468 | 20° C | 90% | 1012.1 hPa | 0 mm | - | - | - |
| 1787839139 | 20° C | 91% | 1012.1 hPa | 0 mm | - | - | - |
| 1787838808 | 20° C | 91% | 1012.1 hPa | 0 mm | - | - | - |
| 1787838508 | 19.44° C | 92% | 1012.3 hPa | 0 mm | - | - | - |
| 1787838209 | 19.44° C | 92% | 1012.3 hPa | 0 mm | - | - | - |
* Rain latest hour (hover to see other rain measurements)
** Current wind speed in m/s (hover to see current wind gust speed)